createdAt,value
2022-08-05T00:00:17.046Z,67.88
2022-08-05T00:01:20.646Z,67.76
2022-08-05T00:02:16.981Z,67.93
2022-08-05T00:03:15.934Z,67.94
2022-08-05T00:04:15.903Z,68.03
2022-08-05T00:05:27.109Z,68.28
2022-08-05T00:06:28.981Z,68.25
2022-08-05T00:07:26.821Z,68.35
2022-08-05T00:08:26.437Z,68.46
2022-08-05T00:09:19.595Z,68.39
2022-08-05T00:10:15.814Z,68.62
2022-08-05T00:11:20.733Z,68.60
2022-08-05T00:12:16.784Z,68.62
2022-08-05T00:13:18.577Z,68.83
2022-08-05T00:14:17.169Z,68.60
2022-08-05T00:15:55.432Z,68.54
2022-08-05T00:16:16.745Z,68.58
2022-08-05T00:17:18.609Z,68.77
2022-08-05T00:18:21.359Z,68.74
2022-08-05T00:19:16.716Z,68.51
2022-08-05T00:20:15.672Z,68.19
2022-08-05T00:21:15.662Z,68.18
2022-08-05T00:22:15.664Z,68.55
2022-08-05T00:23:15.635Z,68.70
2022-08-05T00:24:16.204Z,69.17
2022-08-05T00:25:15.641Z,69.02
2022-08-05T00:26:16.337Z,69.15
2022-08-05T00:27:16.549Z,68.97
2022-08-05T00:28:15.607Z,68.80
2022-08-05T00:29:16.567Z,68.73
2022-08-05T00:30:15.618Z,69.04
2022-08-05T00:31:15.538Z,69.04
2022-08-05T00:32:15.888Z,69.20
2022-08-05T00:34:53.818Z,68.54
2022-08-05T00:34:55.635Z,68.89
2022-08-05T00:35:16.465Z,68.76
2022-08-05T00:36:37.803Z,68.48
2022-08-05T00:37:16.449Z,68.04
2022-08-05T00:38:15.427Z,68.31
2022-08-05T00:39:16.484Z,68.01
2022-08-05T00:40:17.904Z,68.20
2022-08-05T00:41:16.389Z,68.59
2022-08-05T00:42:32.049Z,68.08
2022-08-05T00:43:16.347Z,68.51
2022-08-05T00:44:15.421Z,68.32
2022-08-05T00:45:15.321Z,68.15
2022-08-05T00:46:15.328Z,68.18
2022-08-05T00:47:15.321Z,68.15
2022-08-05T00:48:15.339Z,68.23
2022-08-05T00:49:15.271Z,68.38
2022-08-05T00:50:15.360Z,68.32
2022-08-05T00:51:50.888Z,68.31
2022-08-05T00:52:16.271Z,68.22
2022-08-05T00:54:00.032Z,68.18
2022-08-05T00:54:16.200Z,67.97
2022-08-05T00:55:15.180Z,67.64
2022-08-05T00:56:17.296Z,67.86
2022-08-05T00:57:15.168Z,68.11
2022-08-05T00:58:16.181Z,68.20
2022-08-05T00:59:15.221Z,67.84
2022-08-05T01:00:15.124Z,68.04
2022-08-05T01:01:15.180Z,68.36
2022-08-05T01:02:16.641Z,68.48
2022-08-05T01:03:23.105Z,68.98
2022-08-05T01:04:19.952Z,69.09
2022-08-05T01:05:16.050Z,68.83
2022-08-05T01:06:15.369Z,68.98
2022-08-05T01:07:15.085Z,69.16
2022-08-05T01:08:40.699Z,68.81
2022-08-05T01:09:19.877Z,69.00
2022-08-05T01:10:15.003Z,68.74
2022-08-05T01:11:22.687Z,68.46
2022-08-05T01:12:18.813Z,67.85
2022-08-05T01:13:22.458Z,67.38
2022-08-05T01:14:16.073Z,66.93
2022-08-05T01:15:35.641Z,66.36
2022-08-05T01:16:16.002Z,66.60
2022-08-05T01:17:15.889Z,66.00
2022-08-05T01:18:14.954Z,66.54
2022-08-05T01:19:14.854Z,65.88
2022-08-05T01:20:14.962Z,66.33
2022-08-05T01:21:22.745Z,66.23
2022-08-05T01:22:18.797Z,65.30
2022-08-05T01:23:23.199Z,65.58
2022-08-05T01:24:15.793Z,65.71
2022-08-05T01:25:14.793Z,65.78
2022-08-05T01:26:14.768Z,65.76
2022-08-05T01:27:32.962Z,66.09
2022-08-05T01:28:15.895Z,66.30
2022-08-05T01:29:14.725Z,66.80
2022-08-05T01:30:17.757Z,67.10
2022-08-05T01:31:14.693Z,67.46
2022-08-05T01:32:18.529Z,67.45
2022-08-05T01:33:14.664Z,67.38
2022-08-05T01:34:15.684Z,67.15
2022-08-05T01:35:51.342Z,67.43
2022-08-05T01:36:16.036Z,67.18
2022-08-05T01:37:24.418Z,67.34
2022-08-05T01:38:27.207Z,68.03
2022-08-05T01:39:15.631Z,67.40
2022-08-05T01:40:17.930Z,67.65
2022-08-05T01:41:14.556Z,66.83
2022-08-05T01:42:15.281Z,67.75
2022-08-05T01:43:22.444Z,66.65
2022-08-05T01:44:15.519Z,66.91
2022-08-05T01:45:14.527Z,66.57
2022-08-05T01:46:16.510Z,66.98
2022-08-05T01:47:15.475Z,67.01
2022-08-05T01:48:14.461Z,66.78
2022-08-05T01:49:24.182Z,65.79
2022-08-05T01:50:15.981Z,66.09
2022-08-05T01:51:14.490Z,66.31
2022-08-05T01:52:17.952Z,64.27
2022-08-05T01:53:14.398Z,65.69
2022-08-05T01:54:15.386Z,64.89
2022-08-05T01:55:14.378Z,63.55
2022-08-05T01:58:11.541Z,62.82
2022-08-05T01:58:11.776Z,62.85
2022-08-05T01:58:15.772Z,62.98
2022-08-05T01:59:14.319Z,62.02
2022-08-05T02:00:14.334Z,62.37
2022-08-05T02:01:14.299Z,63.05
2022-08-05T02:02:14.425Z,61.81
2022-08-05T02:03:28.992Z,62.36
2022-08-05T02:04:15.243Z,61.53
2022-08-05T02:05:14.263Z,61.42
2022-08-05T02:06:33.819Z,59.88
2022-08-05T02:07:22.102Z,59.54
2022-08-05T02:08:15.249Z,59.69
2022-08-05T02:09:16.538Z,59.31
2022-08-05T02:10:17.524Z,59.49
2022-08-05T02:11:15.230Z,61.67
2022-08-05T02:12:15.139Z,60.67
2022-08-05T02:13:16.170Z,60.07
2022-08-05T02:14:14.139Z,60.71
2022-08-05T02:15:15.615Z,60.14
2022-08-05T02:16:16.492Z,60.96
2022-08-05T02:17:29.644Z,62.14
2022-08-05T02:18:33.178Z,62.34
2022-08-05T02:19:15.058Z,63.16
2022-08-05T02:20:14.074Z,63.05
2022-08-05T02:21:15.568Z,62.71
2022-08-05T02:22:25.875Z,63.03
2022-08-05T02:23:14.990Z,59.53
2022-08-05T02:24:13.992Z,62.74
2022-08-05T02:25:13.992Z,62.35
2022-08-05T02:26:14.002Z,62.52
2022-08-05T02:27:13.937Z,63.21
2022-08-05T02:28:14.022Z,62.38
2022-08-05T02:29:21.354Z,59.53
2022-08-05T02:30:14.922Z,60.41
2022-08-05T02:31:14.291Z,61.82
2022-08-05T02:32:23.896Z,62.23
2022-08-05T02:33:14.852Z,61.83
2022-08-05T02:34:14.832Z,60.54
2022-08-05T02:35:14.544Z,61.21
2022-08-05T02:36:15.583Z,61.19
2022-08-05T02:37:13.883Z,61.55
2022-08-05T02:38:19.354Z,61.62
2022-08-05T02:39:14.805Z,61.64
2022-08-05T02:40:13.796Z,59.56
2022-08-05T02:41:17.389Z,58.83
2022-08-05T02:42:25.680Z,58.68
2022-08-05T02:43:15.427Z,60.12
2022-08-05T02:44:14.745Z,59.19
2022-08-05T02:45:13.683Z,57.77
2022-08-05T02:46:16.338Z,57.76
2022-08-05T02:47:13.674Z,56.52
2022-08-05T02:48:13.762Z,56.08
2022-08-05T02:49:13.635Z,57.24
2022-08-05T02:50:13.664Z,55.59
2022-08-05T02:51:14.306Z,56.19
2022-08-05T02:52:30.279Z,55.87
2022-08-05T02:53:16.077Z,55.16
2022-08-05T02:54:34.427Z,56.62
2022-08-05T02:55:14.557Z,56.39
2022-08-05T02:56:15.680Z,56.51
2022-08-05T02:58:11.169Z,55.09
2022-08-05T02:58:14.553Z,57.07
2022-08-05T02:59:13.516Z,55.54
2022-08-05T03:00:13.535Z,57.58
2022-08-05T03:01:13.559Z,57.97
2022-08-05T03:02:13.557Z,58.17
2022-08-05T03:03:13.437Z,56.44
2022-08-05T03:04:14.578Z,56.08
2022-08-05T03:05:13.437Z,55.87
2022-08-05T03:06:55.961Z,55.96
2022-08-05T03:07:17.591Z,55.89
2022-08-05T03:08:14.785Z,56.67
2022-08-05T03:09:15.763Z,57.33
2022-08-05T03:10:13.482Z,56.04
2022-08-05T03:11:54.641Z,55.86
2022-08-05T03:12:14.352Z,55.12
2022-08-05T03:13:16.572Z,55.31
2022-08-05T03:14:13.730Z,54.79
2022-08-05T03:15:15.441Z,55.03
2022-08-05T03:16:13.288Z,56.98
2022-08-05T03:17:13.360Z,55.35
2022-08-05T03:18:13.246Z,55.65
2022-08-05T03:19:20.251Z,55.86
2022-08-05T03:20:14.229Z,55.14
2022-08-05T03:21:13.351Z,55.49
2022-08-05T03:22:16.760Z,54.43
2022-08-05T03:23:14.191Z,54.36
2022-08-05T03:24:13.345Z,54.90
2022-08-05T03:25:33.017Z,55.42
2022-08-05T03:26:32.279Z,55.33
2022-08-05T03:27:14.130Z,55.07
2022-08-05T03:28:13.999Z,54.57
2022-08-05T03:29:13.104Z,54.50
2022-08-05T03:30:13.091Z,55.13
2022-08-05T03:31:18.315Z,55.71
2022-08-05T03:32:14.404Z,54.33
2022-08-05T03:33:13.054Z,54.59
2022-08-05T03:34:13.082Z,55.51
2022-08-05T03:35:13.014Z,54.73
2022-08-05T03:36:14.113Z,55.45
2022-08-05T03:37:13.002Z,55.82
2022-08-05T03:38:14.374Z,55.39
2022-08-05T03:39:20.040Z,55.40
2022-08-05T03:40:14.047Z,56.02
2022-08-05T03:41:13.026Z,54.96
2022-08-05T03:42:12.923Z,55.17
2022-08-05T03:43:59.004Z,54.24
2022-08-05T03:44:19.728Z,54.69
2022-08-05T03:45:21.626Z,55.22
2022-08-05T03:46:13.872Z,55.13
2022-08-05T03:47:13.533Z,55.80
2022-08-05T03:48:12.855Z,55.19
2022-08-05T03:49:14.932Z,54.78
2022-08-05T03:50:12.934Z,54.71
2022-08-05T03:52:38.911Z,55.40
2022-08-05T03:52:48.554Z,54.61
2022-08-05T03:55:06.751Z,54.93
2022-08-05T03:55:53.476Z,55.16
2022-08-05T03:56:05.654Z,54.92
2022-08-05T03:56:26.861Z,54.90
2022-08-05T03:57:17.907Z,54.75
2022-08-05T03:58:12.714Z,55.07
2022-08-05T03:59:12.737Z,55.96
2022-08-05T04:00:16.020Z,55.77
2022-08-05T04:01:13.281Z,55.24
2022-08-05T04:02:17.371Z,55.67
2022-08-05T04:03:22.213Z,54.71
2022-08-05T04:04:13.695Z,55.61
2022-08-05T04:05:12.616Z,55.79
2022-08-05T04:06:12.687Z,55.94
2022-08-05T04:07:12.611Z,55.49
2022-08-05T04:08:14.899Z,55.84
2022-08-05T04:09:13.636Z,55.12
2022-08-05T04:10:13.558Z,55.72
2022-08-05T04:11:12.537Z,55.08
2022-08-05T04:12:24.689Z,55.19
2022-08-05T04:13:13.553Z,56.13
2022-08-05T04:14:17.982Z,55.92
2022-08-05T04:15:15.559Z,55.78
2022-08-05T04:16:12.556Z,55.46
2022-08-05T04:17:12.470Z,55.26
2022-08-05T04:18:15.889Z,55.72
2022-08-05T04:19:13.479Z,55.12
2022-08-05T04:20:12.490Z,55.40
2022-08-05T04:21:12.413Z,55.25
2022-08-05T04:22:13.402Z,55.83
2022-08-05T04:23:16.237Z,55.23
2022-08-05T04:24:33.482Z,55.57
2022-08-05T04:25:12.360Z,55.87
2022-08-05T04:26:12.419Z,56.34
2022-08-05T04:27:12.340Z,55.58
2022-08-05T04:28:12.933Z,55.14
2022-08-05T04:29:12.299Z,54.99
2022-08-05T04:30:12.401Z,55.13
2022-08-05T04:31:12.273Z,54.83
2022-08-05T04:32:12.361Z,56.01
2022-08-05T04:33:12.251Z,55.92
2022-08-05T04:34:18.343Z,56.04
2022-08-05T04:35:17.547Z,55.56
2022-08-05T04:36:16.138Z,55.31
2022-08-05T04:37:13.205Z,55.99
2022-08-05T04:38:12.181Z,56.48
2022-08-05T04:39:12.283Z,55.18
2022-08-05T04:40:12.151Z,55.53
2022-08-05T04:41:12.283Z,55.65
2022-08-05T04:42:12.130Z,55.05
2022-08-05T04:43:16.538Z,55.22
2022-08-05T04:44:12.103Z,55.09
2022-08-05T04:45:12.152Z,55.03
2022-08-05T04:46:13.104Z,55.60
2022-08-05T04:47:16.996Z,55.02
2022-08-05T04:48:18.625Z,54.98
2022-08-05T04:49:14.842Z,55.23
2022-08-05T04:50:12.094Z,55.45
2022-08-05T04:51:12.004Z,56.04
2022-08-05T04:52:12.054Z,56.12
2022-08-05T04:53:11.983Z,55.45
2022-08-05T04:54:12.346Z,56.00
2022-08-05T04:55:14.346Z,55.56
2022-08-05T04:56:33.535Z,56.40
2022-08-05T04:57:13.004Z,55.65
2022-08-05T04:58:12.356Z,55.18
2022-08-05T04:59:21.449Z,55.56
2022-08-05T05:00:12.895Z,55.95
2022-08-05T05:01:12.031Z,55.68
2022-08-05T05:02:36.497Z,55.63
2022-08-05T05:03:12.946Z,55.65
2022-08-05T05:04:12.917Z,56.23
2022-08-05T05:05:26.107Z,55.44
2022-08-05T05:06:39.693Z,55.47
2022-08-05T05:07:12.796Z,55.27
2022-08-05T05:08:14.330Z,55.92
2022-08-05T05:09:13.976Z,55.96
2022-08-05T05:10:11.817Z,57.05
2022-08-05T05:11:11.762Z,56.15
2022-08-05T05:12:11.896Z,55.99
2022-08-05T05:13:11.707Z,55.54
2022-08-05T05:14:16.279Z,55.78
2022-08-05T05:15:11.714Z,56.41
2022-08-05T05:16:12.678Z,55.52
2022-08-05T05:17:11.766Z,56.09
2022-08-05T05:18:11.646Z,56.75
2022-08-05T05:19:19.383Z,56.63
2022-08-05T05:20:12.647Z,55.92
2022-08-05T05:21:11.700Z,55.93
2022-08-05T05:22:23.571Z,55.97
2022-08-05T05:23:19.947Z,55.98
2022-08-05T05:24:12.579Z,56.04
2022-08-05T05:25:16.670Z,56.94
2022-08-05T05:26:12.569Z,56.09
2022-08-05T05:27:12.572Z,55.32
2022-08-05T05:28:11.509Z,55.70
2022-08-05T05:29:14.345Z,55.71
2022-08-05T05:30:15.736Z,55.78
2022-08-05T05:31:12.470Z,56.21
2022-08-05T05:32:12.641Z,56.10
2022-08-05T05:33:16.872Z,55.48
2022-08-05T05:34:12.430Z,55.64
2022-08-05T05:35:11.494Z,55.81
2022-08-05T05:36:12.414Z,56.37
2022-08-05T05:37:11.511Z,56.07
2022-08-05T05:38:13.242Z,56.19
2022-08-05T05:39:11.497Z,56.39
2022-08-05T05:40:11.351Z,56.10
2022-08-05T05:41:12.280Z,56.32
2022-08-05T05:42:12.330Z,55.91
2022-08-05T05:43:11.400Z,56.05
2022-08-05T05:44:37.036Z,55.45
2022-08-05T05:45:12.284Z,55.45
2022-08-05T05:46:17.814Z,55.67
2022-08-05T05:47:30.130Z,55.77
2022-08-05T05:48:12.270Z,55.62
2022-08-05T05:49:22.583Z,56.01
2022-08-05T05:50:16.278Z,56.73
2022-08-05T05:51:15.420Z,57.49
2022-08-05T05:52:13.306Z,56.12
2022-08-05T05:53:21.255Z,57.36
2022-08-05T05:54:12.202Z,56.31
2022-08-05T05:55:13.370Z,56.52
2022-08-05T05:56:11.146Z,55.37
2022-08-05T05:57:13.794Z,55.45
2022-08-05T05:58:12.112Z,55.63
2022-08-05T05:59:11.162Z,55.79
2022-08-05T06:00:11.114Z,55.72
2022-08-05T06:01:12.654Z,55.91
2022-08-05T06:02:11.074Z,55.39
2022-08-05T06:03:40.096Z,55.92
2022-08-05T06:04:14.531Z,55.40
2022-08-05T06:05:16.651Z,57.38
2022-08-05T06:06:11.025Z,56.42
2022-08-05T06:07:11.114Z,55.97
2022-08-05T06:08:10.993Z,55.03
2022-08-05T06:09:17.621Z,54.53
2022-08-05T06:10:11.962Z,55.96
2022-08-05T06:11:11.198Z,55.61
2022-08-05T06:12:12.055Z,55.62
2022-08-05T06:13:10.957Z,56.00
2022-08-05T06:14:10.916Z,55.66
2022-08-05T06:15:16.519Z,54.40
2022-08-05T06:16:30.805Z,54.91
2022-08-05T06:17:22.458Z,54.83
2022-08-05T06:18:11.858Z,56.16
2022-08-05T06:19:10.898Z,57.35
2022-08-05T06:20:18.898Z,57.73
2022-08-05T06:21:16.608Z,55.89
2022-08-05T06:22:11.805Z,55.18
2022-08-05T06:23:10.878Z,55.10
2022-08-05T06:24:12.716Z,54.32
2022-08-05T06:25:59.524Z,54.58
2022-08-05T06:26:20.642Z,54.66
2022-08-05T06:27:17.102Z,54.99
2022-08-05T06:28:20.923Z,54.44
2022-08-05T06:29:25.390Z,54.23
2022-08-05T06:30:17.772Z,55.08
2022-08-05T06:31:17.870Z,55.76
2022-08-05T06:32:25.797Z,55.62
2022-08-05T06:33:11.667Z,55.64
2022-08-05T06:34:11.779Z,57.04
2022-08-05T06:35:21.595Z,55.62
2022-08-05T06:36:11.630Z,54.43
2022-08-05T06:37:10.612Z,55.07
2022-08-05T06:38:11.760Z,55.41
2022-08-05T06:39:10.639Z,54.54
2022-08-05T06:40:10.692Z,54.00
2022-08-05T06:41:11.655Z,54.59
2022-08-05T06:42:10.549Z,54.48
2022-08-05T06:43:51.608Z,55.18
2022-08-05T06:44:11.514Z,56.19
2022-08-05T06:45:10.492Z,56.55
2022-08-05T06:46:13.583Z,54.03
2022-08-05T06:47:30.347Z,53.52
2022-08-05T06:48:47.182Z,54.53
2022-08-05T06:49:12.086Z,55.60
2022-08-05T06:50:10.423Z,55.80
2022-08-05T06:51:12.153Z,53.96
2022-08-05T06:52:37.816Z,53.90
2022-08-05T06:53:22.655Z,53.79
2022-08-05T06:54:11.876Z,52.63
2022-08-05T06:55:10.441Z,52.78
2022-08-05T06:56:26.131Z,54.07
2022-08-05T06:57:56.824Z,53.82
2022-08-05T06:58:20.040Z,53.46
2022-08-05T06:59:11.946Z,52.13
2022-08-05T07:00:10.375Z,52.82
2022-08-05T07:01:10.282Z,52.79
2022-08-05T07:02:10.304Z,52.74
2022-08-05T07:03:10.253Z,53.28
2022-08-05T07:04:10.357Z,52.80
2022-08-05T07:05:14.498Z,54.25
2022-08-05T07:06:14.366Z,52.44
2022-08-05T07:07:10.195Z,53.37
2022-08-05T07:08:11.213Z,52.47
2022-08-05T07:09:10.175Z,53.93
2022-08-05T07:10:24.502Z,54.10
2022-08-05T07:11:15.033Z,52.26
2022-08-05T07:12:10.126Z,53.46
2022-08-05T07:13:10.158Z,53.49
2022-08-05T07:14:20.001Z,54.68
2022-08-05T07:15:11.115Z,54.77
2022-08-05T07:16:12.140Z,54.77
2022-08-05T07:17:59.947Z,55.32
2022-08-05T07:18:12.653Z,54.07
2022-08-05T07:19:11.068Z,53.42
2022-08-05T07:20:32.371Z,53.28
2022-08-05T07:21:11.029Z,54.05
2022-08-05T07:22:10.000Z,54.34
2022-08-05T07:23:25.948Z,52.97
2022-08-05T07:24:11.405Z,52.97
2022-08-05T07:25:54.122Z,53.29
2022-08-05T07:26:32.021Z,52.99
2022-08-05T07:27:09.932Z,53.35
2022-08-05T07:28:11.994Z,53.52
2022-08-05T07:29:10.900Z,52.84
2022-08-05T07:30:27.815Z,53.70
2022-08-05T07:31:10.910Z,53.68
2022-08-05T07:32:09.887Z,51.59
2022-08-05T07:33:15.523Z,52.11
2022-08-05T07:34:10.884Z,52.19
2022-08-05T07:35:55.650Z,52.29
2022-08-05T07:36:20.100Z,52.23
2022-08-05T07:37:11.712Z,52.37
2022-08-05T07:38:12.271Z,52.32
2022-08-05T07:39:50.418Z,51.78
2022-08-05T07:40:31.386Z,51.64
2022-08-05T07:41:35.093Z,51.18
2022-08-05T07:42:15.187Z,51.67
2022-08-05T07:43:14.491Z,50.50
2022-08-05T07:44:18.477Z,50.57
2022-08-05T07:45:10.693Z,52.44
2022-08-05T07:46:24.725Z,51.36
2022-08-05T07:47:10.671Z,53.81
2022-08-05T07:48:09.645Z,50.91
2022-08-05T07:49:09.808Z,51.44
2022-08-05T07:50:09.632Z,52.95
2022-08-05T07:51:23.440Z,50.22
2022-08-05T07:52:10.645Z,50.70
2022-08-05T07:53:09.605Z,51.50
2022-08-05T07:54:10.411Z,50.97
2022-08-05T07:55:15.686Z,50.59
2022-08-05T07:57:00.667Z,50.91
2022-08-05T07:57:41.801Z,50.59
2022-08-05T07:58:17.773Z,52.06
2022-08-05T07:59:10.615Z,51.60
2022-08-05T08:00:10.498Z,51.89
2022-08-05T08:01:12.077Z,51.87
2022-08-05T08:02:15.274Z,51.54
2022-08-05T08:03:15.389Z,51.01
2022-08-05T08:04:10.438Z,51.29
2022-08-05T08:05:11.403Z,51.99
2022-08-05T08:06:09.415Z,51.08
2022-08-05T08:07:09.473Z,50.42
2022-08-05T08:08:12.416Z,49.91
2022-08-05T08:09:09.548Z,50.88
2022-08-05T08:10:09.366Z,50.58
2022-08-05T08:11:09.460Z,51.94
2022-08-05T08:12:27.410Z,51.71
2022-08-05T08:13:11.577Z,50.17
2022-08-05T08:14:09.377Z,50.15
2022-08-05T08:15:09.387Z,51.04
2022-08-05T08:16:35.082Z,49.66
2022-08-05T08:17:10.269Z,49.38
2022-08-05T08:18:13.807Z,49.51
2022-08-05T08:19:09.252Z,49.82
2022-08-05T08:20:43.862Z,49.07
2022-08-05T08:21:15.783Z,49.53
2022-08-05T08:22:10.199Z,50.46
2022-08-05T08:24:00.436Z,49.85
2022-08-05T08:24:13.816Z,50.08
2022-08-05T08:25:15.715Z,50.19
2022-08-05T08:26:10.150Z,49.44
2022-08-05T08:27:09.170Z,50.11
2022-08-05T08:28:18.514Z,48.01
2022-08-05T08:30:03.061Z,49.32
2022-08-05T08:30:27.697Z,50.19
2022-08-05T08:31:10.088Z,48.86
2022-08-05T08:32:10.803Z,49.27
2022-08-05T08:33:09.145Z,50.83
2022-08-05T08:34:09.040Z,49.72
2022-08-05T08:35:13.622Z,48.36
2022-08-05T08:37:10.003Z,49.46
2022-08-05T08:38:11.611Z,49.25
2022-08-05T08:39:15.761Z,48.91
2022-08-05T08:40:09.966Z,49.41
2022-08-05T08:41:14.053Z,47.81
2022-08-05T08:42:32.291Z,48.35
2022-08-05T08:44:54.756Z,48.58
2022-08-05T08:45:19.799Z,48.80
2022-08-05T08:45:24.013Z,48.80
2022-08-05T08:46:10.242Z,48.82
2022-08-05T08:47:47.825Z,49.26
2022-08-05T08:48:23.132Z,49.17
2022-08-05T08:50:12.900Z,51.84
2022-08-05T08:50:30.890Z,48.82
2022-08-05T08:51:54.492Z,49.23
2022-08-05T08:52:24.186Z,50.43
2022-08-05T08:53:14.314Z,48.87
2022-08-05T08:54:11.628Z,49.09
2022-08-05T08:55:13.179Z,49.45
2022-08-05T08:56:08.754Z,49.38
2022-08-05T08:57:11.019Z,49.26
2022-08-05T08:58:08.807Z,49.46
2022-08-05T08:59:14.835Z,48.49
2022-08-05T09:00:09.817Z,48.70
2022-08-05T09:01:15.611Z,46.76
2022-08-05T09:02:09.667Z,46.90
2022-08-05T09:03:09.827Z,46.51
2022-08-05T09:04:10.609Z,47.91
2022-08-05T09:05:17.385Z,46.69
2022-08-05T09:06:11.532Z,48.24
2022-08-05T09:07:10.655Z,47.12
2022-08-05T09:08:09.706Z,47.91
2022-08-05T09:09:08.728Z,47.38
2022-08-05T09:10:08.560Z,47.77
2022-08-05T09:11:08.721Z,48.92
2022-08-05T09:12:19.861Z,47.82
2022-08-05T09:13:09.519Z,45.75
2022-08-05T09:14:54.344Z,44.70
2022-08-05T09:15:09.519Z,46.05
2022-08-05T09:16:08.498Z,46.24
2022-08-05T09:17:40.500Z,44.69
2022-08-05T09:18:09.815Z,45.58
2022-08-05T09:19:08.443Z,45.97
2022-08-05T09:20:09.546Z,45.94
2022-08-05T09:21:11.531Z,45.86
2022-08-05T09:22:22.143Z,45.56
2022-08-05T09:23:09.785Z,44.78
2022-08-05T09:24:10.211Z,45.09
2022-08-05T09:25:13.705Z,44.61
2022-08-05T09:26:09.442Z,46.24
2022-08-05T09:27:08.468Z,45.27
2022-08-05T09:28:08.335Z,46.21
2022-08-05T09:29:08.836Z,45.91
2022-08-05T09:30:08.485Z,46.75
2022-08-05T09:31:43.286Z,45.57
2022-08-05T09:32:42.252Z,46.80
2022-08-05T09:33:09.274Z,47.38
2022-08-05T09:34:09.807Z,47.45
2022-08-05T09:35:10.413Z,47.88
2022-08-05T09:36:16.217Z,47.19
2022-08-05T09:37:15.109Z,48.54
2022-08-05T09:38:16.853Z,49.04
2022-08-05T09:39:18.514Z,49.76
2022-08-05T09:40:09.213Z,47.06
2022-08-05T09:41:08.329Z,46.21
2022-08-05T09:42:08.417Z,46.17
2022-08-05T09:43:08.494Z,46.51
2022-08-05T09:44:08.118Z,46.78
2022-08-05T09:46:06.672Z,47.51
2022-08-05T09:46:09.099Z,47.83
2022-08-05T09:47:10.412Z,45.83
2022-08-05T09:48:08.067Z,46.37
2022-08-05T09:49:19.558Z,46.42
2022-08-05T09:50:09.038Z,45.97
2022-08-05T09:51:15.112Z,44.63
2022-08-05T09:52:09.078Z,45.03
2022-08-05T09:53:08.880Z,44.15
2022-08-05T09:54:07.989Z,44.18
2022-08-05T09:55:56.107Z,43.69
2022-08-05T09:56:12.924Z,44.48
2022-08-05T09:57:23.150Z,44.52
2022-08-05T09:58:08.930Z,43.82
2022-08-05T09:59:08.047Z,45.40
2022-08-05T10:00:07.922Z,45.30
2022-08-05T10:01:14.833Z,46.28
2022-08-05T10:02:08.982Z,45.90
2022-08-05T10:03:56.776Z,46.59
2022-08-05T10:04:10.600Z,46.80
2022-08-05T10:05:07.952Z,46.99
2022-08-05T10:06:15.408Z,46.82
2022-08-05T10:07:19.579Z,44.70
2022-08-05T10:08:35.080Z,45.89
2022-08-05T10:09:08.791Z,45.95
2022-08-05T10:10:14.785Z,45.09
2022-08-05T10:11:08.759Z,43.77
2022-08-05T10:12:18.561Z,45.10
2022-08-05T10:13:09.938Z,43.39
2022-08-05T10:14:07.912Z,42.40
2022-08-05T10:15:07.716Z,42.55
2022-08-05T10:16:07.895Z,42.70
2022-08-05T10:17:07.683Z,44.76
2022-08-05T10:18:08.682Z,42.91
2022-08-05T10:19:09.250Z,43.05
2022-08-05T10:20:11.066Z,43.79
2022-08-05T10:21:11.852Z,45.56
2022-08-05T10:22:08.949Z,45.70
2022-08-05T10:23:21.890Z,43.47
2022-08-05T10:24:10.868Z,43.13
2022-08-05T10:25:07.622Z,42.40
2022-08-05T10:26:07.726Z,43.40
2022-08-05T10:27:08.576Z,44.01
2022-08-05T10:28:13.857Z,44.01
2022-08-05T10:29:08.525Z,44.75
2022-08-05T10:32:02.978Z,44.89
2022-08-05T10:32:48.134Z,45.82
2022-08-05T10:32:51.664Z,45.42
2022-08-05T10:33:09.370Z,46.63
2022-08-05T10:34:08.470Z,47.52
2022-08-05T10:35:07.577Z,48.21
2022-08-05T10:36:07.439Z,48.19
2022-08-05T10:37:07.567Z,45.67
2022-08-05T10:38:08.292Z,47.94
2022-08-05T10:39:11.590Z,48.26
2022-08-05T10:40:17.888Z,45.24
2022-08-05T10:41:08.486Z,44.46
2022-08-05T10:42:07.353Z,43.64
2022-08-05T10:43:07.367Z,43.99
2022-08-05T10:44:08.330Z,44.16
2022-08-05T10:45:21.434Z,44.71
2022-08-05T10:46:08.447Z,46.07
2022-08-05T10:47:10.188Z,46.15
2022-08-05T10:48:29.425Z,44.34
2022-08-05T10:49:10.418Z,45.75
2022-08-05T10:50:32.341Z,46.13
2022-08-05T10:51:22.505Z,49.04
2022-08-05T10:52:10.539Z,46.74
2022-08-05T10:53:07.223Z,47.74
2022-08-05T10:54:28.192Z,47.79
2022-08-05T10:55:08.209Z,48.07
2022-08-05T10:56:21.608Z,46.59
2022-08-05T10:57:08.143Z,45.92
2022-08-05T10:58:07.252Z,46.92
2022-08-05T11:00:01.261Z,48.09
2022-08-05T11:00:16.099Z,48.62
2022-08-05T11:01:08.153Z,46.76
2022-08-05T11:02:07.136Z,45.56
2022-08-05T11:03:24.476Z,47.26
2022-08-05T11:04:08.180Z,47.87
2022-08-05T11:05:31.509Z,46.29
2022-08-05T11:06:08.612Z,46.46
2022-08-05T11:07:08.066Z,45.08
2022-08-05T11:08:33.884Z,45.26
2022-08-05T11:09:08.003Z,42.45
2022-08-05T11:10:10.009Z,42.71
2022-08-05T11:11:14.604Z,41.57
2022-08-05T11:12:07.964Z,42.50
2022-08-05T11:13:07.048Z,42.91
2022-08-05T11:14:06.916Z,42.25
2022-08-05T11:15:19.082Z,41.72
2022-08-05T11:16:07.933Z,42.57
2022-08-05T11:18:00.250Z,41.80
2022-08-05T11:18:09.720Z,41.86
2022-08-05T11:20:11.182Z,42.78
2022-08-05T11:20:16.628Z,41.67
2022-08-05T11:21:11.599Z,42.00
2022-08-05T11:22:06.847Z,42.76
2022-08-05T11:23:10.431Z,42.94
2022-08-05T11:24:29.848Z,42.33
2022-08-05T11:26:03.266Z,43.57
2022-08-05T11:26:09.030Z,44.30
2022-08-05T11:27:07.920Z,43.73
2022-08-05T11:28:06.780Z,45.34
2022-08-05T11:29:13.129Z,46.18
2022-08-05T11:30:07.756Z,46.95
2022-08-05T11:31:06.902Z,48.36
2022-08-05T11:32:06.700Z,48.08
2022-08-05T11:33:06.800Z,47.90
2022-08-05T11:34:08.087Z,46.78
2022-08-05T11:35:08.831Z,46.60
2022-08-05T11:36:08.953Z,50.40
2022-08-05T11:38:30.057Z,46.49
2022-08-05T11:38:36.952Z,46.34
2022-08-05T11:39:07.622Z,45.61
2022-08-05T11:40:07.823Z,45.82
2022-08-05T11:41:35.061Z,46.08
2022-08-05T11:42:07.594Z,45.70
2022-08-05T11:43:06.552Z,42.19
2022-08-05T11:44:08.251Z,40.07
2022-08-05T11:45:14.434Z,39.96
2022-08-05T11:46:27.388Z,41.83
2022-08-05T11:47:13.992Z,40.37
2022-08-05T11:48:07.643Z,40.63
2022-08-05T11:49:08.077Z,44.41
2022-08-05T11:50:06.466Z,41.60
2022-08-05T11:51:07.535Z,41.96
2022-08-05T11:52:11.173Z,43.01
2022-08-05T11:53:09.963Z,43.83
2022-08-05T11:54:06.527Z,44.72
2022-08-05T11:55:07.624Z,45.43
2022-08-05T11:56:06.383Z,47.69
2022-08-05T11:57:07.684Z,45.24
2022-08-05T11:58:09.389Z,43.43
2022-08-05T11:59:13.574Z,42.53
2022-08-05T12:00:07.345Z,42.74
2022-08-05T12:01:08.523Z,42.69
2022-08-05T12:02:06.323Z,43.26
2022-08-05T12:03:07.331Z,44.47
2022-08-05T12:04:06.399Z,42.39
2022-08-05T12:05:07.728Z,40.52
2022-08-05T12:06:09.822Z,38.76
2022-08-05T12:07:06.249Z,38.70
2022-08-05T12:08:11.522Z,39.28
2022-08-05T12:09:07.236Z,38.58
2022-08-05T12:10:06.381Z,39.45
2022-08-05T12:11:06.441Z,39.81
2022-08-05T12:12:06.349Z,40.34
2022-08-05T12:13:13.995Z,39.80
2022-08-05T12:14:07.207Z,37.29
2022-08-05T12:15:06.299Z,38.11
2022-08-05T12:16:14.177Z,38.07
2022-08-05T12:18:04.186Z,38.41
2022-08-05T12:18:10.604Z,38.85
2022-08-05T12:19:08.307Z,39.47
2022-08-05T12:20:27.016Z,40.07
2022-08-05T12:21:07.081Z,42.46
2022-08-05T12:22:29.185Z,41.18
2022-08-05T12:23:06.042Z,37.06
2022-08-05T12:24:07.234Z,36.65
2022-08-05T12:25:06.013Z,35.18
2022-08-05T12:26:06.191Z,34.78
2022-08-05T12:27:09.681Z,34.88
2022-08-05T12:28:07.066Z,34.17
2022-08-05T12:29:06.094Z,34.94
2022-08-05T12:30:06.003Z,36.13
2022-08-05T12:31:06.137Z,38.09
2022-08-05T12:32:07.603Z,39.52
2022-08-05T12:33:07.441Z,40.73
2022-08-05T12:34:06.896Z,41.69
2022-08-05T12:35:05.991Z,42.54
2022-08-05T12:36:08.544Z,43.31
2022-08-05T12:37:06.955Z,42.00
2022-08-05T12:38:05.848Z,43.46
2022-08-05T12:39:07.215Z,43.01
2022-08-05T12:40:10.752Z,43.17
2022-08-05T12:41:12.481Z,43.00
2022-08-05T12:42:06.795Z,42.08
2022-08-05T12:43:05.885Z,43.49
2022-08-05T12:44:05.766Z,43.49
2022-08-05T12:45:09.561Z,40.06
2022-08-05T12:46:05.907Z,41.93
2022-08-05T12:47:05.757Z,41.83
2022-08-05T12:48:27.120Z,41.90
2022-08-05T12:49:13.545Z,43.12
2022-08-05T12:50:07.309Z,43.74
2022-08-05T12:51:05.698Z,43.89
2022-08-05T12:52:12.570Z,44.81
2022-08-05T12:53:06.658Z,43.33